Time;durP1;ratioP1;P1;durP2;ratioP2;P2;SDS_P1;SDS_P2;PMS_P1;PMS_P2;Temp;Humidity;BMP_temperature;BMP_pressure;BME280_temperature;BME280_humidity;BME280_pressure;Samples;Min_cycle;Max_cycle;Signal;HPM_P1;HPM_P2
2023/05/03 00:02:00;;;;;;;12.93;7.35;;;;;;;;;;5008180;28;20078;-75
2023/05/03 00:04:26;;;;;;;7.75;6.07;;;;;;;;;;5011178;28;20428;-75
2023/05/03 00:06:52;;;;;;;10.48;5.95;;;;;;;;;;5008262;28;20026;-75
2023/05/03 00:09:17;;;;;;;7.93;4.80;;;;;;;;;;5008471;28;20131;-75
2023/05/03 00:11:42;;;;;;;7.25;5.15;;;;;;;;;;5011341;28;20374;-74
2023/05/03 00:14:08;;;;;;;8.55;5.32;;;;;;;;;;5011270;28;20022;-75
2023/05/03 00:16:34;;;;;;;8.70;4.93;;;;;;;;;;5010223;28;20037;-74
2023/05/03 00:18:59;;;;;;;8.52;5.43;;;;;;;;;;5005940;28;20025;-73
2023/05/03 00:21:25;;;;;;;11.50;5.35;;;;;;;;;;5013376;28;20030;-75
2023/05/03 00:23:51;;;;;;;8.38;6.00;;;;;;;;;;5013584;28;20026;-73
2023/05/03 00:26:16;;;;;;;11.63;7.82;;;;;;;;;;5010323;28;20401;-73
2023/05/03 00:28:42;;;;;;;9.75;6.75;;;;;;;;;;5011065;28;20058;-73
2023/05/03 00:31:08;;;;;;;14.15;6.03;;;;;;;;;;5008555;28;20037;-73
2023/05/03 00:33:34;;;;;;;7.15;5.50;;;;;;;;;;5008363;28;20018;-75
2023/05/03 00:36:05;;;;;;;7.93;4.97;;;;;;;;;;5012685;28;20104;-75
2023/05/03 00:38:30;;;;;;;5.80;4.97;;;;;;;;;;4999191;28;20345;-75
2023/05/03 00:40:56;;;;;;;5.95;3.97;;;;;;;;;;5011382;28;20065;-75
2023/05/03 00:43:21;;;;;;;5.32;4.05;;;;;;;;;;5012354;28;20066;-74
2023/05/03 00:45:46;;;;;;;6.05;3.47;;;;;;;;;;5006330;28;20112;-74
2023/05/03 00:48:12;;;;;;;5.55;3.72;;;;;;;;;;5005936;28;20113;-74
2023/05/03 00:50:37;;;;;;;3.83;3.40;;;;;;;;;;5013647;28;20034;-73
2023/05/03 00:53:03;;;;;;;4.57;2.90;;;;;;;;;;5010865;28;20441;-74
2023/05/03 00:55:30;;;;;;;6.57;3.20;;;;;;;;;;5012337;28;20021;-73
2023/05/03 00:57:56;;;;;;;5.65;3.13;;;;;;;;;;5002784;28;20117;-73
2023/05/03 01:00:22;;;;;;;6.57;3.17;;;;;;;;;;5003365;28;20421;-72
2023/05/03 01:02:48;;;;;;;5.47;3.35;;;;;;;;;;5001115;28;20040;-71
2023/05/03 01:05:13;;;;;;;6.35;4.30;;;;;;;;;;5012230;28;20041;-72
2023/05/03 01:07:45;;;;;;;6.28;4.43;;;;;;;;;;5013122;28;20026;-71
2023/05/03 01:10:36;;;;;;;8.05;5.00;;;;;;;;;;5012253;28;20053;-72
2023/05/03 01:13:05;;;;;;;7.13;4.70;;;;;;;;;;5011680;28;20047;-72
2023/05/03 01:15:30;;;;;;;8.25;4.78;;;;;;;;;;5010800;28;20040;-74
2023/05/03 01:17:58;;;;;;;87.85;11.93;;;;;;;;;;5003364;28;20096;-73
2023/05/03 01:20:25;;;;;;;12.70;4.07;;;;;;;;;;5006965;28;20031;-74
2023/05/03 01:22:57;;;;;;;7.65;3.97;;;;;;;;;;5005380;28;20491;-75
2023/05/03 01:25:22;;;;;;;7.07;4.40;;;;;;;;;;5014637;28;20636;-76
2023/05/03 01:27:47;;;;;;;8.27;4.47;;;;;;;;;;5012205;28;20030;-74
2023/05/03 01:30:13;;;;;;;4.55;4.10;;;;;;;;;;5012959;28;20069;-72
2023/05/03 01:32:44;;;;;;;5.70;3.70;;;;;;;;;;5003061;28;20036;-72
2023/05/03 01:35:19;;;;;;;8.10;5.72;;;;;;;;;;5010339;28;20022;-73
2023/05/03 01:37:45;;;;;;;9.02;5.30;;;;;;;;;;5011297;28;20025;-74
2023/05/03 01:40:15;;;;;;;7.47;5.40;;;;;;;;;;5012675;28;20029;-72
2023/05/03 01:42:41;;;;;;;10.55;6.55;;;;;;;;;;5005542;28;20033;-73
2023/05/03 01:45:06;;;;;;;5.75;5.07;;;;;;;;;;5015127;28;20030;-73
2023/05/03 01:47:32;;;;;;;9.30;4.93;;;;;;;;;;5013768;28;20034;-73
2023/05/03 01:49:57;;;;;;;5.97;4.22;;;;;;;;;;5017471;28;20082;-74
2023/05/03 01:52:23;;;;;;;7.22;3.40;;;;;;;;;;5014629;28;20033;-76
2023/05/03 01:54:48;;;;;;;5.90;3.88;;;;;;;;;;5011536;28;20173;-76
2023/05/03 01:57:13;;;;;;;4.60;3.70;;;;;;;;;;5005054;28;20025;-73
2023/05/03 01:59:39;;;;;;;7.90;3.90;;;;;;;;;;5005578;28;20453;-72
2023/05/03 02:02:04;;;;;;;7.13;3.97;;;;;;;;;;5014065;28;20342;-71
2023/05/03 02:04:30;;;;;;;6.50;3.92;;;;;;;;;;5016241;28;20361;-73
2023/05/03 02:06:55;;;;;;;9.25;4.07;;;;;;;;;;5015308;28;20116;-71
2023/05/03 02:09:21;;;;;;;7.85;4.93;;;;;;;;;;5014065;28;20108;-71
2023/05/03 02:11:46;;;;;;;8.20;3.85;;;;;;;;;;5004095;28;20425;-72
2023/05/03 02:14:11;;;;;;;10.27;5.25;;;;;;;;;;5015932;28;20770;-75
2023/05/03 02:16:37;;;;;;;6.65;4.80;;;;;;;;;;5016881;28;20076;-73
2023/05/03 02:19:02;;;;;;;10.40;4.78;;;;;;;;;;5014417;28;20724;-74
2023/05/03 02:21:28;;;;;;;8.50;4.57;;;;;;;;;;5004035;28;20069;-73
2023/05/03 02:23:53;;;;;;;5.88;4.40;;;;;;;;;;5015535;28;20049;-72
2023/05/03 02:26:19;;;;;;;6.13;4.57;;;;;;;;;;5016985;28;20040;-72
2023/05/03 02:28:44;;;;;;;7.75;4.18;;;;;;;;;;5015026;28;20041;-71
2023/05/03 02:31:09;;;;;;;8.93;4.30;;;;;;;;;;5014599;28;20022;-73
2023/05/03 02:33:35;;;;;;;6.63;4.00;;;;;;;;;;5012518;28;20025;-72
2023/05/03 02:36:00;;;;;;;5.88;4.00;;;;;;;;;;5005450;28;20025;-72
2023/05/03 02:38:26;;;;;;;8.00;3.85;;;;;;;;;;5015898;28;20021;-72
2023/05/03 02:40:51;;;;;;;8.38;4.40;;;;;;;;;;5009062;28;20042;-77
2023/05/03 02:43:17;;;;;;;6.22;4.40;;;;;;;;;;5003877;28;20408;-74
2023/05/03 02:45:42;;;;;;;5.88;4.00;;;;;;;;;;5010304;28;20045;-75
2023/05/03 02:48:08;;;;;;;10.40;5.93;;;;;;;;;;5007128;28;20133;-72
2023/05/03 02:50:33;;;;;;;7.55;4.95;;;;;;;;;;5010264;28;20035;-73
2023/05/03 02:52:59;;;;;;;7.50;4.97;;;;;;;;;;5015117;28;20021;-71
2023/05/03 02:55:24;;;;;;;12.27;6.28;;;;;;;;;;5013218;28;20033;-71
2023/05/03 02:57:50;;;;;;;9.32;5.40;;;;;;;;;;5012955;28;20157;-72
2023/05/03 03:00:15;;;;;;;7.90;5.63;;;;;;;;;;5012702;28;20041;-72
2023/05/03 03:02:40;;;;;;;9.13;5.05;;;;;;;;;;5005310;28;20025;-73
2023/05/03 03:05:07;;;;;;;6.25;4.38;;;;;;;;;;5011275;28;20095;-76
2023/05/03 03:07:33;;;;;;;7.18;4.60;;;;;;;;;;5012251;28;20033;-73
2023/05/03 03:09:58;;;;;;;5.07;4.38;;;;;;;;;;5011076;28;20033;-72
2023/05/03 03:12:25;;;;;;;6.97;4.60;;;;;;;;;;5013293;28;20443;-72
2023/05/03 03:14:50;;;;;;;6.43;4.57;;;;;;;;;;5015346;28;20014;-74
2023/05/03 03:17:15;;;;;;;7.60;4.80;;;;;;;;;;5011792;28;20607;-74
2023/05/03 03:19:41;;;;;;;6.97;4.65;;;;;;;;;;5011921;28;20441;-76
2023/05/03 03:22:06;;;;;;;5.55;4.57;;;;;;;;;;5014874;28;20040;-74
2023/05/03 03:24:32;;;;;;;6.70;3.75;;;;;;;;;;5012388;28;20445;-73
2023/05/03 03:26:57;;;;;;;10.95;4.47;;;;;;;;;;5011391;28;20048;-73
2023/05/03 03:29:22;;;;;;;6.40;4.05;;;;;;;;;;5009790;28;20044;-74
2023/05/03 03:31:48;;;;;;;6.03;4.45;;;;;;;;;;5002523;28;20406;-74
2023/05/03 03:34:13;;;;;;;7.35;4.57;;;;;;;;;;5014730;28;20434;-73
2023/05/03 03:36:38;;;;;;;10.65;7.10;;;;;;;;;;5012904;28;20026;-74
2023/05/03 03:39:04;;;;;;;10.07;7.30;;;;;;;;;;5009913;28;20501;-75
2023/05/03 03:41:30;;;;;;;14.10;7.82;;;;;;;;;;5014430;28;21563;-75
2023/05/03 03:43:56;;;;;;;12.23;6.38;;;;;;;;;;5013219;28;20058;-76
2023/05/03 03:46:21;;;;;;;14.75;4.60;;;;;;;;;;5007902;28;20037;-75
2023/05/03 03:48:46;;;;;;;7.57;4.20;;;;;;;;;;5006984;28;20074;-74
2023/05/03 03:51:12;;;;;;;5.03;3.50;;;;;;;;;;5005309;28;20152;-74
2023/05/03 03:53:37;;;;;;;5.22;3.50;;;;;;;;;;5003263;28;20179;-74
2023/05/03 03:56:02;;;;;;;4.82;3.30;;;;;;;;;;4992784;28;20029;-74
2023/05/03 03:58:28;;;;;;;7.15;4.07;;;;;;;;;;4997333;28;23396;-74
2023/05/03 04:00:53;;;;;;;4.95;3.30;;;;;;;;;;4997383;28;20098;-76
2023/05/03 04:03:19;;;;;;;6.05;3.42;;;;;;;;;;4998798;28;20359;-74
2023/05/03 04:05:44;;;;;;;4.53;3.40;;;;;;;;;;5004529;28;20034;-77
2023/05/03 04:08:10;;;;;;;5.30;3.90;;;;;;;;;;5006904;28;20076;-74
2023/05/03 04:10:35;;;;;;;4.75;3.42;;;;;;;;;;5013040;28;20028;-73
2023/05/03 04:13:00;;;;;;;5.07;3.70;;;;;;;;;;5013760;28;20078;-74
2023/05/03 04:15:26;;;;;;;6.63;3.95;;;;;;;;;;5003263;28;20329;-72
2023/05/03 04:17:51;;;;;;;14.57;9.63;;;;;;;;;;5011042;28;20030;-72
2023/05/03 04:20:18;;;;;;;16.80;12.50;;;;;;;;;;5012091;28;20021;-75
2023/05/03 04:22:43;;;;;;;43.00;31.15;;;;;;;;;;5014664;28;20026;-76
2023/05/03 04:25:12;;;;;;;54.83;41.70;;;;;;;;;;5001027;28;20041;-73
2023/05/03 04:27:37;;;;;;;31.88;26.38;;;;;;;;;;4995484;28;20053;-74
2023/05/03 04:30:02;;;;;;;8.75;7.30;;;;;;;;;;4997725;28;20080;-75
2023/05/03 04:32:28;;;;;;;18.38;12.07;;;;;;;;;;5003062;28;20065;-73
2023/05/03 04:34:53;;;;;;;11.05;7.85;;;;;;;;;;5002768;28;20025;-77
2023/05/03 04:37:19;;;;;;;5.43;4.78;;;;;;;;;;5005709;28;20061;-73
2023/05/03 04:39:45;;;;;;;6.32;5.10;;;;;;;;;;5012154;28;20271;-74
2023/05/03 04:42:12;;;;;;;7.95;5.43;;;;;;;;;;5012843;28;20017;-73
2023/05/03 04:44:37;;;;;;;18.05;16.20;;;;;;;;;;5012391;28;20021;-74
2023/05/03 04:47:03;;;;;;;8.98;7.47;;;;;;;;;;5010841;28;20497;-74
2023/05/03 04:49:28;;;;;;;11.15;7.78;;;;;;;;;;5002053;28;20025;-78
2023/05/03 04:51:54;;;;;;;9.70;5.45;;;;;;;;;;5011257;28;20025;-74
2023/05/03 04:54:19;;;;;;;10.45;7.40;;;;;;;;;;5012926;28;20040;-74
2023/05/03 04:56:45;;;;;;;9.80;5.28;;;;;;;;;;5013143;28;20033;-71
2023/05/03 04:59:11;;;;;;;9.93;5.07;;;;;;;;;;5012337;28;20033;-71
2023/05/03 05:01:36;;;;;;;8.75;5.57;;;;;;;;;;5009665;28;20030;-70
2023/05/03 05:04:02;;;;;;;8.73;6.40;;;;;;;;;;5012963;28;20042;-73
2023/05/03 05:06:27;;;;;;;14.05;7.40;;;;;;;;;;5010828;28;20397;-77
2023/05/03 05:08:52;;;;;;;19.50;13.18;;;;;;;;;;5010905;28;20072;-74
2023/05/03 05:11:19;;;;;;;32.55;23.92;;;;;;;;;;5012533;28;20474;-74
2023/05/03 05:13:45;;;;;;;24.52;18.00;;;;;;;;;;5010534;28;20060;-71
2023/05/03 05:16:10;;;;;;;17.45;10.20;;;;;;;;;;5012032;28;20126;-71
2023/05/03 05:18:35;;;;;;;7.72;6.45;;;;;;;;;;5012038;28;20332;-71
2023/05/03 05:21:00;;;;;;;8.55;5.43;;;;;;;;;;5012998;28;20437;-71
2023/05/03 05:23:26;;;;;;;6.05;5.07;;;;;;;;;;5011471;28;20497;-75
2023/05/03 05:25:52;;;;;;;21.52;14.80;;;;;;;;;;5005687;28;20493;-72
2023/05/03 05:28:18;;;;;;;6.93;6.22;;;;;;;;;;5003536;28;20574;-71
2023/05/03 05:30:43;;;;;;;13.40;6.85;;;;;;;;;;5012348;28;20017;-72
2023/05/03 05:33:08;;;;;;;5.18;4.60;;;;;;;;;;5009761;28;20026;-72
2023/05/03 05:35:34;;;;;;;7.18;5.30;;;;;;;;;;5007588;28;20401;-72
2023/05/03 05:37:59;;;;;;;9.13;5.85;;;;;;;;;;5012478;28;20036;-71
2023/05/03 05:40:25;;;;;;;7.93;5.95;;;;;;;;;;5008545;28;20034;-74
2023/05/03 05:42:50;;;;;;;4.35;3.80;;;;;;;;;;4999501;28;20167;-73
2023/05/03 05:45:15;;;;;;;3.85;3.30;;;;;;;;;;5008704;28;20056;-74
2023/05/03 05:47:41;;;;;;;5.43;3.13;;;;;;;;;;4998650;28;20021;-74
2023/05/03 05:50:06;;;;;;;6.13;3.97;;;;;;;;;;5009074;28;20030;-73
2023/05/03 05:52:32;;;;;;;5.75;4.40;;;;;;;;;;5011685;28;20033;-71
2023/05/03 05:54:57;;;;;;;13.38;8.50;;;;;;;;;;5005869;28;20738;-75
2023/05/03 05:57:23;;;;;;;8.65;5.97;;;;;;;;;;5002710;28;20470;-70
2023/05/03 05:59:48;;;;;;;8.10;5.20;;;;;;;;;;5009926;28;20033;-71
2023/05/03 06:02:17;;;;;;;7.47;5.78;;;;;;;;;;5011957;28;20052;-71
2023/05/03 06:04:44;;;;;;;14.82;10.85;;;;;;;;;;5010231;28;20036;-70
2023/05/03 06:07:09;;;;;;;8.73;6.57;;;;;;;;;;5001430;28;20089;-71
2023/05/03 06:09:34;;;;;;;8.13;4.65;;;;;;;;;;5010051;28;20034;-70
2023/05/03 06:12:00;;;;;;;23.20;16.95;;;;;;;;;;5007185;28;20055;-71
2023/05/03 06:14:25;;;;;;;9.13;5.78;;;;;;;;;;5010827;28;20030;-74
2023/05/03 06:16:50;;;;;;;8.63;5.80;;;;;;;;;;5010521;28;20038;-72
2023/05/03 06:19:16;;;;;;;32.25;18.70;;;;;;;;;;5009164;28;20029;-75
2023/05/03 06:21:41;;;;;;;28.05;15.80;;;;;;;;;;5008177;28;20109;-72
2023/05/03 06:24:06;;;;;;;28.02;17.23;;;;;;;;;;5011714;28;20040;-71
2023/05/03 06:26:32;;;;;;;55.50;35.58;;;;;;;;;;5013923;28;20041;-71
2023/05/03 06:28:59;;;;;;;62.65;41.80;;;;;;;;;;5012596;28;20522;-72
2023/05/03 06:31:25;;;;;;;45.50;34.67;;;;;;;;;;5011700;28;20345;-72
2023/05/03 06:33:50;;;;;;;60.67;44.70;;;;;;;;;;5013905;28;20018;-74
2023/05/03 06:36:15;;;;;;;9.75;7.78;;;;;;;;;;5008057;28;20033;-72
2023/05/03 06:38:42;;;;;;;14.45;9.40;;;;;;;;;;5002005;28;20021;-71
2023/05/03 06:41:08;;;;;;;13.27;9.10;;;;;;;;;;5003982;28;20030;-71
2023/05/03 06:43:33;;;;;;;8.65;5.10;;;;;;;;;;5004317;28;20133;-72
2023/05/03 06:45:58;;;;;;;7.40;5.68;;;;;;;;;;5003463;28;20029;-71
2023/05/03 06:48:24;;;;;;;25.23;16.90;;;;;;;;;;5006621;28;20403;-76
2023/05/03 06:50:49;;;;;;;15.20;10.40;;;;;;;;;;5006615;28;20115;-73
2023/05/03 06:53:15;;;;;;;18.80;11.73;;;;;;;;;;5006170;28;20029;-73
2023/05/03 06:55:42;;;;;;;8.45;5.45;;;;;;;;;;5011264;28;20372;-76
2023/05/03 06:58:10;;;;;;;7.40;4.50;;;;;;;;;;5011050;28;20026;-73
2023/05/03 07:00:37;;;;;;;8.80;6.70;;;;;;;;;;5015147;28;20433;-73
2023/05/03 07:03:03;;;;;;;8.38;5.72;;;;;;;;;;5013808;28;20468;-74
2023/05/03 07:05:29;;;;;;;9.43;5.75;;;;;;;;;;5006867;28;20076;-72
2023/05/03 07:07:54;;;;;;;9.15;7.25;;;;;;;;;;5002813;28;20673;-72
2023/05/03 07:10:19;;;;;;;7.82;5.25;;;;;;;;;;5007941;28;20098;-71
2023/05/03 07:12:45;;;;;;;15.35;9.60;;;;;;;;;;5004273;28;20030;-70
2023/05/03 07:15:10;;;;;;;11.57;6.65;;;;;;;;;;5003109;28;20049;-71
2023/05/03 07:17:35;;;;;;;13.73;10.02;;;;;;;;;;5002877;28;20350;-71
2023/05/03 07:20:01;;;;;;;9.45;6.40;;;;;;;;;;5009628;28;20026;-72
2023/05/03 07:22:26;;;;;;;8.73;6.10;;;;;;;;;;5007841;28;20523;-74
2023/05/03 07:24:57;;;;;;;6.97;5.63;;;;;;;;;;5003373;28;20029;-71
2023/05/03 07:27:23;;;;;;;11.98;9.90;;;;;;;;;;5006284;28;20042;-71
2023/05/03 07:29:48;;;;;;;8.55;6.10;;;;;;;;;;5004542;28;20045;-72
2023/05/03 07:32:13;;;;;;;9.05;7.50;;;;;;;;;;5002594;28;20075;-72
2023/05/03 07:34:39;;;;;;;8.45;5.97;;;;;;;;;;5010554;28;20026;-72
2023/05/03 07:37:04;;;;;;;7.20;5.50;;;;;;;;;;5011033;28;20040;-72
2023/05/03 07:39:29;;;;;;;7.07;4.18;;;;;;;;;;5010557;28;20030;-72
2023/05/03 07:41:55;;;;;;;7.68;5.38;;;;;;;;;;5011633;28;20033;-73
2023/05/03 07:44:21;;;;;;;12.13;6.53;;;;;;;;;;5012618;28;20076;-71
2023/05/03 07:46:46;;;;;;;15.20;11.20;;;;;;;;;;5010492;28;20117;-71
2023/05/03 07:49:11;;;;;;;6.40;5.03;;;;;;;;;;5013569;28;20036;-70
2023/05/03 07:51:37;;;;;;;8.23;4.68;;;;;;;;;;5013406;28;20078;-69
2023/05/03 07:54:03;;;;;;;10.13;5.75;;;;;;;;;;5013864;28;20018;-71
2023/05/03 07:56:28;;;;;;;9.93;6.68;;;;;;;;;;5012452;28;20102;-72
2023/05/03 07:58:53;;;;;;;10.80;4.55;;;;;;;;;;5012139;28;20043;-71
2023/05/03 08:01:20;;;;;;;6.93;4.72;;;;;;;;;;5013761;28;20090;-74
2023/05/03 08:03:49;;;;;;;6.05;4.88;;;;;;;;;;5014180;28;20352;-70
2023/05/03 08:06:14;;;;;;;8.65;4.45;;;;;;;;;;5012101;28;20445;-73
2023/05/03 08:08:41;;;;;;;6.40;4.80;;;;;;;;;;5012181;28;20030;-73
2023/05/03 08:11:06;;;;;;;6.80;5.07;;;;;;;;;;5002869;28;20031;-72
2023/05/03 08:13:31;;;;;;;8.40;4.28;;;;;;;;;;5008670;28;20348;-72
2023/05/03 08:15:57;;;;;;;4.70;3.95;;;;;;;;;;5012220;28;20033;-72
2023/05/03 08:18:23;;;;;;;8.60;4.50;;;;;;;;;;5011920;28;20025;-72
2023/05/03 08:20:48;;;;;;;8.85;5.03;;;;;;;;;;5011765;28;20472;-71
2023/05/03 08:23:15;;;;;;;6.13;3.90;;;;;;;;;;5010627;28;20116;-72
2023/05/03 08:25:41;;;;;;;4.57;4.05;;;;;;;;;;5009190;28;20037;-74
2023/05/03 08:28:07;;;;;;;7.60;3.83;;;;;;;;;;5012224;28;20032;-72
2023/05/03 08:30:32;;;;;;;5.55;4.05;;;;;;;;;;5011686;28;20033;-72
2023/05/03 08:32:58;;;;;;;8.05;4.72;;;;;;;;;;5008406;28;20037;-72
2023/05/03 08:35:23;;;;;;;7.03;5.15;;;;;;;;;;5014119;28;20021;-72
2023/05/03 08:37:48;;;;;;;10.07;7.05;;;;;;;;;;5009628;28;20315;-73
2023/05/03 08:40:14;;;;;;;24.77;15.25;;;;;;;;;;5011831;28;20040;-72
2023/05/03 08:42:40;;;;;;;14.38;10.23;;;;;;;;;;5010223;28;20029;-72
2023/05/03 08:45:07;;;;;;;8.30;7.03;;;;;;;;;;5011663;28;20104;-72
2023/05/03 08:47:36;;;;;;;10.10;5.53;;;;;;;;;;5012379;28;20029;-73
2023/05/03 08:50:02;;;;;;;6.67;5.67;;;;;;;;;;5013700;28;20025;-73
2023/05/03 08:52:28;;;;;;;11.98;6.32;;;;;;;;;;5010117;28;20271;-75
2023/05/03 08:54:53;;;;;;;8.25;5.50;;;;;;;;;;5009812;28;20029;-72
2023/05/03 08:57:20;;;;;;;7.45;6.07;;;;;;;;;;5012803;28;20040;-71
2023/05/03 08:59:49;;;;;;;11.05;6.28;;;;;;;;;;5010201;28;20030;-72
2023/05/03 09:02:15;;;;;;;12.60;6.60;;;;;;;;;;5010861;28;20030;-71
2023/05/03 09:04:41;;;;;;;7.97;6.07;;;;;;;;;;5013451;28;20040;-71
2023/05/03 09:07:07;;;;;;;8.82;6.07;;;;;;;;;;5011715;28;20606;-73
2023/05/03 09:09:32;;;;;;;9.95;7.32;;;;;;;;;;5011279;28;23008;-72
2023/05/03 09:11:58;;;;;;;8.63;6.95;;;;;;;;;;5010425;28;20021;-72
2023/05/03 09:14:23;;;;;;;9.40;6.97;;;;;;;;;;5003635;28;20025;-73
2023/05/03 09:16:48;;;;;;;9.98;7.47;;;;;;;;;;5003835;28;20150;-71
2023/05/03 09:19:14;;;;;;;10.05;6.55;;;;;;;;;;5004784;28;20022;-76
2023/05/03 09:21:44;;;;;;;10.15;6.13;;;;;;;;;;5011049;28;20025;-76
2023/05/03 09:24:13;;;;;;;7.38;6.15;;;;;;;;;;5010092;28;20441;-73
2023/05/03 09:26:39;;;;;;;7.95;5.10;;;;;;;;;;5011664;28;20045;-73
2023/05/03 09:29:05;;;;;;;9.90;5.30;;;;;;;;;;5011157;28;20048;-72
2023/05/03 09:31:31;;;;;;;6.32;5.68;;;;;;;;;;5010801;28;20028;-73
2023/05/03 09:33:57;;;;;;;6.68;5.03;;;;;;;;;;5012228;28;20028;-75
2023/05/03 09:36:23;;;;;;;9.13;6.57;;;;;;;;;;5013064;28;20061;-72
2023/05/03 09:38:49;;;;;;;8.93;6.00;;;;;;;;;;5011414;28;20029;-72
2023/05/03 09:41:15;;;;;;;8.73;6.15;;;;;;;;;;5009426;28;20018;-72
2023/05/03 09:43:50;;;;;;;10.43;8.63;;;;;;;;;;5013585;28;20121;-75
2023/05/03 09:46:15;;;;;;;8.73;7.40;;;;;;;;;;5007735;28;20262;-72
2023/05/03 09:48:41;;;;;;;9.10;6.70;;;;;;;;;;5011201;28;20100;-72
2023/05/03 09:51:07;;;;;;;14.80;13.23;;;;;;;;;;5009483;28;20374;-72
2023/05/03 09:53:33;;;;;;;8.63;6.90;;;;;;;;;;5003649;28;20029;-73
2023/05/03 09:56:01;;;;;;;9.32;8.30;;;;;;;;;;5008297;28;20032;-74
2023/05/03 09:58:29;;;;;;;8.30;6.83;;;;;;;;;;5008922;28;20158;-75
2023/05/03 10:00:55;;;;;;;10.77;7.85;;;;;;;;;;5007741;28;20747;-71
2023/05/03 10:03:27;;;;;;;9.32;6.40;;;;;;;;;;5014574;28;20037;-72
2023/05/03 10:05:53;;;;;;;6.25;5.47;;;;;;;;;;5015836;28;20496;-71
2023/05/03 10:08:23;;;;;;;7.75;6.60;;;;;;;;;;5016894;28;20112;-72
2023/05/03 10:10:50;;;;;;;8.43;7.45;;;;;;;;;;5012148;28;20057;-72
2023/05/03 10:13:16;;;;;;;12.43;8.68;;;;;;;;;;5015564;28;20120;-75
2023/05/03 10:15:42;;;;;;;9.85;7.00;;;;;;;;;;5007805;28;20483;-71
2023/05/03 10:18:09;;;;;;;7.97;6.50;;;;;;;;;;5011430;28;20467;-72
2023/05/03 10:20:38;;;;;;;7.75;5.68;;;;;;;;;;5007463;28;20049;-71
2023/05/03 10:23:03;;;;;;;7.22;6.00;;;;;;;;;;5003897;28;20070;-73
2023/05/03 10:25:28;;;;;;;6.28;5.70;;;;;;;;;;5013995;28;20386;-71
2023/05/03 10:28:00;;;;;;;9.50;5.18;;;;;;;;;;5015217;28;20083;-72
2023/05/03 10:30:30;;;;;;;6.07;5.15;;;;;;;;;;5012276;28;20152;-71
2023/05/03 10:32:55;;;;;;;7.65;5.80;;;;;;;;;;5016458;28;20029;-72
2023/05/03 10:35:24;;;;;;;11.93;5.88;;;;;;;;;;5014342;28;20034;-71
2023/05/03 10:37:50;;;;;;;7.38;5.15;;;;;;;;;;5012043;28;20323;-72
2023/05/03 10:40:17;;;;;;;8.20;5.82;;;;;;;;;;5010467;28;20203;-74
2023/05/03 10:43:03;;;;;;;5.25;4.65;;;;;;;;;;5005908;28;20050;-76
2023/05/03 10:45:28;;;;;;;6.95;4.78;;;;;;;;;;5015137;28;20049;-72
2023/05/03 10:48:12;;;;;;;7.05;5.15;;;;;;;;;;5012559;28;20421;-73
2023/05/03 10:50:38;;;;;;;6.38;4.40;;;;;;;;;;5014617;28;20033;-72
2023/05/03 10:53:03;;;;;;;4.90;4.20;;;;;;;;;;5012358;28;20030;-73
2023/05/03 10:55:29;;;;;;;7.88;4.75;;;;;;;;;;5014357;28;20029;-72
2023/05/03 10:57:56;;;;;;;9.70;5.78;;;;;;;;;;5013948;28;20033;-74
2023/05/03 11:00:42;;;;;;;9.98;6.40;;;;;;;;;;5015302;28;20032;-72
2023/05/03 11:03:24;;;;;;;9.13;6.10;;;;;;;;;;5011468;28;20085;-74
2023/05/03 11:05:50;;;;;;;19.77;13.52;;;;;;;;;;5013350;28;20081;-72
2023/05/03 11:08:19;;;;;;;17.90;10.88;;;;;;;;;;5014012;28;20080;-72
2023/05/03 11:10:50;;;;;;;12.23;6.32;;;;;;;;;;5014686;28;20116;-75
2023/05/03 11:13:15;;;;;;;6.72;5.78;;;;;;;;;;5010570;28;20018;-72
2023/05/03 11:15:41;;;;;;;7.30;5.53;;;;;;;;;;5014919;28;20029;-73
2023/05/03 11:18:07;;;;;;;7.68;5.50;;;;;;;;;;5012517;28;20088;-74
2023/05/03 11:20:32;;;;;;;7.78;5.93;;;;;;;;;;5013610;28;20061;-73
2023/05/03 11:22:57;;;;;;;9.05;6.07;;;;;;;;;;5015157;28;20098;-72
2023/05/03 11:25:23;;;;;;;8.25;6.03;;;;;;;;;;5012428;28;21303;-72
2023/05/03 11:27:51;;;;;;;7.80;4.93;;;;;;;;;;5013554;28;20038;-71
2023/05/03 11:30:17;;;;;;;10.18;6.70;;;;;;;;;;5002689;28;20046;-72
2023/05/03 11:32:42;;;;;;;15.75;7.80;;;;;;;;;;5011838;28;20041;-72
2023/05/03 11:35:08;;;;;;;9.43;7.50;;;;;;;;;;5013830;28;20037;-74
2023/05/03 11:37:34;;;;;;;11.23;7.53;;;;;;;;;;5013253;28;20117;-72
2023/05/03 11:40:00;;;;;;;11.63;7.47;;;;;;;;;;5011667;28;20064;-74
2023/05/03 11:42:25;;;;;;;12.85;7.20;;;;;;;;;;5011643;28;20414;-72
2023/05/03 11:44:54;;;;;;;9.23;6.72;;;;;;;;;;5014126;28;20022;-75
2023/05/03 11:47:20;;;;;;;7.30;5.47;;;;;;;;;;5009207;28;20099;-71
2023/05/03 11:49:55;;;;;;;12.10;5.50;;;;;;;;;;5005809;28;20021;-71
2023/05/03 11:52:24;;;;;;;7.30;5.78;;;;;;;;;;5007952;28;20022;-72
2023/05/03 11:54:50;;;;;;;8.38;4.20;;;;;;;;;;5013235;28;20032;-74
2023/05/03 11:57:15;;;;;;;6.00;4.30;;;;;;;;;;5007417;28;20033;-73
2023/05/03 11:59:41;;;;;;;7.00;4.07;;;;;;;;;;5001951;28;20033;-72
2023/05/03 12:02:08;;;;;;;6.07;3.95;;;;;;;;;;5002131;28;20021;-71
2023/05/03 12:04:35;;;;;;;8.20;3.85;;;;;;;;;;5014059;28;20021;-72
2023/05/03 12:07:00;;;;;;;4.65;4.05;;;;;;;;;;5011106;28;20496;-72
2023/05/03 12:09:26;;;;;;;6.10;4.03;;;;;;;;;;5015899;28;20101;-71
2023/05/03 12:11:52;;;;;;;4.70;3.67;;;;;;;;;;5005383;28;20045;-72
2023/05/03 12:14:17;;;;;;;5.35;4.18;;;;;;;;;;5011027;28;20024;-71
2023/05/03 12:16:47;;;;;;;7.80;4.05;;;;;;;;;;5003175;28;20110;-73
2023/05/03 12:19:21;;;;;;;4.18;3.50;;;;;;;;;;5002489;28;20025;-71
2023/05/03 12:21:47;;;;;;;6.10;4.38;;;;;;;;;;5002265;28;20099;-74
2023/05/03 12:24:16;;;;;;;9.60;4.15;;;;;;;;;;5000968;28;20017;-75
2023/05/03 12:26:42;;;;;;;5.35;4.78;;;;;;;;;;5001397;28;20034;-74
2023/05/03 12:29:08;;;;;;;6.57;3.85;;;;;;;;;;5001955;28;20122;-75
2023/05/03 12:31:33;;;;;;;9.30;4.00;;;;;;;;;;5001295;28;20022;-74
2023/05/03 12:33:58;;;;;;;5.15;3.08;;;;;;;;;;5000438;28;20136;-74
2023/05/03 12:36:24;;;;;;;6.70;3.53;;;;;;;;;;5000452;28;20079;-72
2023/05/03 12:38:50;;;;;;;4.00;2.85;;;;;;;;;;4999433;28;20996;-71
2023/05/03 12:41:16;;;;;;;3.97;3.15;;;;;;;;;;5001090;28;20029;-76
2023/05/03 12:43:41;;;;;;;4.97;3.50;;;;;;;;;;5001400;28;20031;-74
2023/05/03 12:46:07;;;;;;;4.35;3.38;;;;;;;;;;5001311;28;20033;-74
2023/05/03 12:48:32;;;;;;;3.85;3.30;;;;;;;;;;5001892;28;20120;-74
2023/05/03 12:50:57;;;;;;;6.25;3.20;;;;;;;;;;5001057;28;20037;-73
2023/05/03 12:53:24;;;;;;;3.58;3.20;;;;;;;;;;5001346;28;20078;-72
2023/05/03 12:55:50;;;;;;;4.68;3.42;;;;;;;;;;5000868;28;20018;-72
2023/05/03 12:58:16;;;;;;;4.97;3.50;;;;;;;;;;5001442;28;20032;-73
2023/05/03 13:00:41;;;;;;;4.78;2.92;;;;;;;;;;4999838;28;20025;-73
2023/05/03 13:03:06;;;;;;;3.95;3.33;;;;;;;;;;5000977;28;20444;-73
2023/05/03 13:05:32;;;;;;;7.35;3.72;;;;;;;;;;5001784;28;20493;-76
2023/05/03 13:07:59;;;;;;;4.82;2.83;;;;;;;;;;5000567;28;20030;-74
2023/05/03 13:10:25;;;;;;;4.55;3.20;;;;;;;;;;5006180;28;20021;-73
2023/05/03 13:12:52;;;;;;;3.92;3.55;;;;;;;;;;5014277;28;20021;-75
2023/05/03 13:15:18;;;;;;;5.00;3.15;;;;;;;;;;5007516;28;20071;-72
2023/05/03 13:17:43;;;;;;;5.32;4.63;;;;;;;;;;5009405;28;20029;-74
2023/05/03 13:20:09;;;;;;;6.40;3.75;;;;;;;;;;5003073;28;20424;-73
2023/05/03 13:22:35;;;;;;;4.35;3.60;;;;;;;;;;5003572;28;20021;-77
2023/05/03 13:25:01;;;;;;;4.72;3.95;;;;;;;;;;5003453;28;20274;-72
2023/05/03 13:27:27;;;;;;;5.75;4.00;;;;;;;;;;5006294;28;20371;-75
2023/05/03 13:29:52;;;;;;;4.72;3.83;;;;;;;;;;5003724;28;20083;-73
2023/05/03 13:32:18;;;;;;;3.95;3.42;;;;;;;;;;5012038;28;20034;-72
2023/05/03 13:34:43;;;;;;;5.38;3.53;;;;;;;;;;5010626;28;20411;-73
2023/05/03 13:37:10;;;;;;;7.78;4.18;;;;;;;;;;5008198;28;20033;-72
2023/05/03 13:39:35;;;;;;;4.60;4.03;;;;;;;;;;5012310;28;20062;-74
2023/05/03 13:42:01;;;;;;;7.47;4.00;;;;;;;;;;5007827;28;20029;-73
2023/05/03 13:44:26;;;;;;;8.57;4.13;;;;;;;;;;5009201;28;20058;-74
2023/05/03 13:46:52;;;;;;;5.63;4.18;;;;;;;;;;5002251;28;20425;-72
2023/05/03 13:49:17;;;;;;;6.68;3.80;;;;;;;;;;5005557;28;20021;-73
2023/05/03 13:51:42;;;;;;;4.03;3.33;;;;;;;;;;5010933;28;20036;-73
2023/05/03 13:54:08;;;;;;;5.25;4.22;;;;;;;;;;5009573;28;20022;-73
2023/05/03 13:56:34;;;;;;;6.88;4.30;;;;;;;;;;5008658;28;20050;-75
2023/05/03 13:58:59;;;;;;;7.18;4.28;;;;;;;;;;5008916;28;20341;-72
2023/05/03 14:01:26;;;;;;;8.95;5.78;;;;;;;;;;5011994;28;20108;-76
2023/05/03 14:03:51;;;;;;;10.57;5.50;;;;;;;;;;5001513;28;20121;-73
2023/05/03 14:06:19;;;;;;;7.65;4.45;;;;;;;;;;5008397;28;20112;-73
2023/05/03 14:08:44;;;;;;;5.80;3.88;;;;;;;;;;5003783;28;20120;-75
2023/05/03 14:11:13;;;;;;;6.05;4.65;;;;;;;;;;4995230;28;20105;-77
2023/05/03 14:13:39;;;;;;;7.45;4.40;;;;;;;;;;4995132;28;20025;-72
2023/05/03 14:16:05;;;;;;;5.28;4.22;;;;;;;;;;4998168;28;20046;-76
2023/05/03 14:18:30;;;;;;;5.10;3.60;;;;;;;;;;4999296;28;20053;-74
2023/05/03 14:20:56;;;;;;;5.32;3.90;;;;;;;;;;5000034;28;20125;-75
2023/05/03 14:23:23;;;;;;;7.43;3.95;;;;;;;;;;5001104;28;20044;-73
2023/05/03 14:25:48;;;;;;;5.95;4.00;;;;;;;;;;5000439;28;23138;-73
2023/05/03 14:28:13;;;;;;;3.67;3.22;;;;;;;;;;4999944;28;20032;-72
2023/05/03 14:30:39;;;;;;;6.90;3.65;;;;;;;;;;5000539;28;20021;-76
2023/05/03 14:33:04;;;;;;;5.68;3.95;;;;;;;;;;5001490;28;20030;-73